createdAt,value
2022-08-16T00:02:33.266Z,17.26
2022-08-16T00:05:01.567Z,17.22
2022-08-16T00:07:29.756Z,17.22
2022-08-16T00:09:59.571Z,17.21
2022-08-16T00:12:29.899Z,17.18
2022-08-16T00:15:00.312Z,17.14
2022-08-16T00:17:28.975Z,17.15
2022-08-16T00:20:16.922Z,17.09
2022-08-16T00:22:49.549Z,17.10
2022-08-16T00:26:36.037Z,17.10
2022-08-16T00:28:11.640Z,17.10
2022-08-16T00:30:40.148Z,17.08
2022-08-16T00:33:10.199Z,17.07
2022-08-16T00:35:39.329Z,17.05
2022-08-16T00:38:40.162Z,17.05
2022-08-16T00:40:57.502Z,17.03
2022-08-16T00:43:43.298Z,17.01
2022-08-16T00:46:33.532Z,17.07
2022-08-16T00:49:03.326Z,17.05
2022-08-16T00:51:31.630Z,17.04
2022-08-16T00:53:59.618Z,17.02
2022-08-16T00:56:56.230Z,17.01
2022-08-16T00:59:23.937Z,16.98
2022-08-16T01:01:53.157Z,17.00
2022-08-16T01:04:30.341Z,17.00
2022-08-16T01:07:01.805Z,16.95
2022-08-16T01:09:33.288Z,16.98
2022-08-16T01:12:08.692Z,16.96
2022-08-16T01:14:47.098Z,16.97
2022-08-16T01:17:19.322Z,16.93
2022-08-16T01:19:51.164Z,16.95
2022-08-16T01:22:48.280Z,16.97
2022-08-16T01:25:21.642Z,17.01
2022-08-16T01:27:53.261Z,17.06
2022-08-16T01:30:27.542Z,17.10
2022-08-16T01:33:02.360Z,17.13
2022-08-16T01:35:46.927Z,17.17
2022-08-16T01:38:25.830Z,17.21
2022-08-16T01:41:03.487Z,17.27
2022-08-16T01:43:34.280Z,17.30
2022-08-16T01:46:37.732Z,17.33
2022-08-16T01:49:15.594Z,17.32
2022-08-16T01:51:48.833Z,17.35
2022-08-16T01:54:30.674Z,17.36
2022-08-16T01:57:02.218Z,17.37
2022-08-16T01:59:32.503Z,17.35
2022-08-16T02:02:00.991Z,17.33
2022-08-16T02:04:49.539Z,17.38
2022-08-16T02:07:23.684Z,17.40
2022-08-16T02:09:58.687Z,17.45
2022-08-16T02:12:51.083Z,17.43
2022-08-16T02:15:27.103Z,17.38
2022-08-16T02:17:58.407Z,17.33
2022-08-16T02:20:28.159Z,17.37
2022-08-16T02:22:57.404Z,17.34
2022-08-16T02:25:47.467Z,17.33
2022-08-16T02:28:19.330Z,17.34
2022-08-16T02:30:51.633Z,17.32
2022-08-16T02:33:24.761Z,17.33
2022-08-16T02:36:14.232Z,17.37
2022-08-16T02:39:00.476Z,17.31
2022-08-16T02:41:28.528Z,17.33
2022-08-16T02:44:00.080Z,17.33
2022-08-16T02:46:30.133Z,17.30
2022-08-16T02:49:03.903Z,17.31
2022-08-16T02:51:34.150Z,17.28
2022-08-16T02:54:04.205Z,17.27
2022-08-16T02:56:34.165Z,17.27
2022-08-16T02:59:11.752Z,17.26
2022-08-16T03:01:43.303Z,17.22
2022-08-16T03:04:41.413Z,17.21
2022-08-16T03:07:14.761Z,17.15
2022-08-16T03:09:45.755Z,17.16
2022-08-16T03:12:19.271Z,17.12
2022-08-16T03:14:50.403Z,17.10
2022-08-16T03:17:21.916Z,17.07
2022-08-16T03:20:02.551Z,17.14
2022-08-16T03:26:14.390Z,17.10
2022-08-16T03:28:42.811Z,17.11
2022-08-16T03:31:12.511Z,17.05
2022-08-16T03:33:43.007Z,17.06
2022-08-16T03:36:29.808Z,17.06
2022-08-16T03:39:03.410Z,17.08
2022-08-16T03:41:49.834Z,17.06
2022-08-16T03:44:40.793Z,17.03
2022-08-16T03:47:10.611Z,17.00
2022-08-16T03:49:40.945Z,16.99
2022-08-16T03:52:12.315Z,17.02
2022-08-16T03:54:53.357Z,17.03
2022-08-16T03:57:31.730Z,17.04
2022-08-16T04:00:35.473Z,17.09
2022-08-16T04:03:08.723Z,17.06
2022-08-16T04:05:44.317Z,17.08
2022-08-16T04:08:22.788Z,17.08
2022-08-16T04:10:57.895Z,17.11
2022-08-16T04:14:00.154Z,17.11
2022-08-16T04:16:26.522Z,17.10
2022-08-16T04:19:04.606Z,17.12
2022-08-16T04:21:35.121Z,17.12
2022-08-16T04:24:03.891Z,17.14
2022-08-16T04:26:37.033Z,17.17
2022-08-16T04:29:23.552Z,17.17
2022-08-16T04:31:56.740Z,17.19
2022-08-16T04:34:32.362Z,17.23
2022-08-16T04:37:02.216Z,17.25
2022-08-16T04:39:36.653Z,17.29
2022-08-16T04:42:15.526Z,17.30
2022-08-16T04:44:53.210Z,17.28
2022-08-16T04:47:31.690Z,17.31
2022-08-16T04:50:04.950Z,17.33
2022-08-16T04:52:35.839Z,17.34
2022-08-16T04:55:07.935Z,17.36
2022-08-16T04:57:37.866Z,17.37
2022-08-16T05:00:30.560Z,17.38
2022-08-16T05:02:58.886Z,17.40
2022-08-16T05:05:36.910Z,17.44
2022-08-16T05:08:29.044Z,17.47
2022-08-16T05:11:08.936Z,17.49
2022-08-16T05:13:42.397Z,17.51
2022-08-16T05:16:23.236Z,17.55
2022-08-16T05:19:13.288Z,17.56
2022-08-16T05:22:03.401Z,17.58
2022-08-16T05:24:34.238Z,17.64
2022-08-16T05:27:11.314Z,17.67
2022-08-16T05:29:57.409Z,17.71
2022-08-16T05:32:32.787Z,17.74
2022-08-16T05:35:11.037Z,17.79
2022-08-16T05:37:45.159Z,17.85
2022-08-16T05:40:16.208Z,17.89
2022-08-16T05:42:49.445Z,17.92
2022-08-16T05:45:21.942Z,17.90
2022-08-16T05:48:00.073Z,17.94
2022-08-16T05:50:38.230Z,17.97
2022-08-16T05:53:11.232Z,17.98
2022-08-16T05:55:52.116Z,18.00
2022-08-16T05:58:32.842Z,18.04
2022-08-16T06:01:02.736Z,18.04
2022-08-16T06:03:32.030Z,18.07
2022-08-16T06:06:05.325Z,18.16
2022-08-16T06:08:42.336Z,18.21
2022-08-16T06:11:14.837Z,18.26
2022-08-16T06:13:48.167Z,18.33
2022-08-16T06:16:21.726Z,18.40
2022-08-16T06:18:53.791Z,18.47
2022-08-16T06:21:23.933Z,18.51
2022-08-16T06:24:01.267Z,18.56
2022-08-16T06:26:36.931Z,18.62
2022-08-16T06:29:07.702Z,18.66
2022-08-16T06:31:46.820Z,18.71
2022-08-16T06:34:53.096Z,18.78
2022-08-16T06:37:07.458Z,18.87
2022-08-16T06:39:49.765Z,18.91
2022-08-16T06:42:57.186Z,18.93
2022-08-16T06:45:46.380Z,19.00
2022-08-16T06:48:21.247Z,19.11
2022-08-16T06:51:02.729Z,19.15
2022-08-16T06:53:35.628Z,19.27
2022-08-16T06:56:14.582Z,19.34
2022-08-16T06:58:58.407Z,19.39
2022-08-16T07:01:44.987Z,19.44
2022-08-16T07:04:31.892Z,19.48
2022-08-16T07:07:03.328Z,19.58
2022-08-16T07:09:32.637Z,19.61
2022-08-16T07:12:03.210Z,19.68
2022-08-16T07:14:35.169Z,19.73
2022-08-16T07:17:08.226Z,19.83
2022-08-16T07:20:03.563Z,19.91
2022-08-16T07:22:39.707Z,20.01
2022-08-16T07:25:28.425Z,20.06
2022-08-16T07:27:59.261Z,20.10
2022-08-16T07:30:45.568Z,20.14
2022-08-16T07:33:51.864Z,20.24
2022-08-16T07:36:14.894Z,20.36
2022-08-16T07:38:52.244Z,20.39
2022-08-16T07:41:20.748Z,20.44
2022-08-16T07:43:55.820Z,20.55
2022-08-16T07:46:38.402Z,20.60
2022-08-16T07:49:32.337Z,20.64
2022-08-16T07:52:01.412Z,20.68
2022-08-16T07:54:49.118Z,20.72
2022-08-16T07:57:21.359Z,20.69
2022-08-16T07:59:57.265Z,20.70
2022-08-16T08:02:27.468Z,20.91
2022-08-16T08:04:58.127Z,20.85
2022-08-16T08:07:29.209Z,21.00
2022-08-16T08:10:01.558Z,21.04
2022-08-16T08:12:36.146Z,21.09
2022-08-16T08:15:12.108Z,21.17
2022-08-16T08:17:44.130Z,21.27
2022-08-16T08:20:28.367Z,21.42
2022-08-16T08:23:00.768Z,21.50
2022-08-16T08:25:51.967Z,21.56
2022-08-16T08:28:20.518Z,21.48
2022-08-16T08:31:01.643Z,21.43
2022-08-16T08:33:33.876Z,21.48
2022-08-16T08:36:05.145Z,21.54
2022-08-16T08:38:42.201Z,21.58
2022-08-16T08:41:15.476Z,21.67
2022-08-16T08:43:50.354Z,21.79
2022-08-16T08:46:22.803Z,21.98
2022-08-16T08:48:59.478Z,22.07
2022-08-16T08:51:31.897Z,22.12
2022-08-16T08:54:06.609Z,22.21
2022-08-16T08:56:37.437Z,22.38
2022-08-16T08:59:16.402Z,22.43
2022-08-16T09:01:57.032Z,22.37
2022-08-16T09:04:29.650Z,22.38
2022-08-16T09:07:01.455Z,22.36
2022-08-16T09:09:41.089Z,22.44
2022-08-16T09:12:35.341Z,22.35
2022-08-16T09:15:06.577Z,22.28
2022-08-16T09:17:51.761Z,22.27
2022-08-16T09:20:23.723Z,22.22
2022-08-16T09:22:54.652Z,22.15
2022-08-16T09:25:56.144Z,22.10
2022-08-16T09:29:13.821Z,22.08
2022-08-16T09:31:20.133Z,22.21
2022-08-16T09:33:51.963Z,22.34
2022-08-16T09:36:31.535Z,22.53
2022-08-16T09:39:02.155Z,22.62
2022-08-16T09:41:31.690Z,22.68
2022-08-16T09:44:02.567Z,22.74
2022-08-16T09:46:49.873Z,22.71
2022-08-16T09:49:20.852Z,22.79
2022-08-16T09:51:54.550Z,22.75
2022-08-16T09:54:32.185Z,22.85
2022-08-16T09:57:01.710Z,22.85
2022-08-16T09:59:31.214Z,22.95
2022-08-16T10:02:25.846Z,23.05
2022-08-16T10:04:57.423Z,23.04
2022-08-16T10:07:26.261Z,23.03
2022-08-16T10:10:13.199Z,23.12
2022-08-16T10:13:01.251Z,23.04
2022-08-16T10:15:30.183Z,22.99
2022-08-16T10:17:59.954Z,22.96
2022-08-16T10:20:34.571Z,22.98
2022-08-16T10:23:07.173Z,22.95
2022-08-16T10:27:18.204Z,23.00
2022-08-16T10:28:28.571Z,23.00
2022-08-16T10:30:59.410Z,23.03
2022-08-16T10:33:29.346Z,23.05
2022-08-16T10:36:03.315Z,23.15
2022-08-16T10:38:33.237Z,23.10
2022-08-16T10:41:06.997Z,23.16
2022-08-16T10:43:36.420Z,23.30
2022-08-16T10:46:33.795Z,23.47
2022-08-16T10:48:56.064Z,23.54
2022-08-16T10:51:33.609Z,23.58
2022-08-16T10:54:05.015Z,23.52
2022-08-16T10:56:51.361Z,23.62
2022-08-16T10:59:32.607Z,23.70
2022-08-16T11:02:58.819Z,23.68
2022-08-16T11:05:10.730Z,23.72
2022-08-16T11:07:43.728Z,23.71
2022-08-16T11:10:57.048Z,23.80
2022-08-16T11:15:59.178Z,23.98
2022-08-16T11:19:04.618Z,23.95
2022-08-16T11:21:28.834Z,24.07
2022-08-16T11:23:59.853Z,24.18
2022-08-16T11:26:28.675Z,24.06
2022-08-16T11:29:13.883Z,24.07
2022-08-16T11:31:45.823Z,24.17
2022-08-16T11:34:21.855Z,24.14
2022-08-16T11:36:53.907Z,24.13
2022-08-16T11:39:31.853Z,24.11
2022-08-16T11:42:02.496Z,24.16
2022-08-16T11:44:52.313Z,24.15
2022-08-16T11:47:18.650Z,24.16
2022-08-16T11:49:46.566Z,24.17
2022-08-16T11:52:17.541Z,24.20
2022-08-16T11:54:56.832Z,24.23
2022-08-16T11:57:25.156Z,24.23
2022-08-16T11:59:54.955Z,24.31
2022-08-16T12:02:31.318Z,24.36
2022-08-16T12:05:01.178Z,24.32
2022-08-16T12:07:29.455Z,24.29
2022-08-16T12:10:02.753Z,24.39
2022-08-16T12:12:32.748Z,24.42
2022-08-16T12:15:02.157Z,24.46
2022-08-16T12:17:32.371Z,24.45
2022-08-16T12:20:00.568Z,24.56
2022-08-16T12:22:29.143Z,24.53
2022-08-16T12:24:57.214Z,24.51
2022-08-16T12:27:27.445Z,24.63
2022-08-16T12:29:59.146Z,24.61
2022-08-16T12:32:39.524Z,24.63
2022-08-16T12:35:14.628Z,24.65
2022-08-16T12:37:46.227Z,24.69
2022-08-16T12:40:24.818Z,24.67
2022-08-16T12:43:01.253Z,24.73
2022-08-16T12:45:32.055Z,24.80
2022-08-16T12:48:34.981Z,24.87
2022-08-16T12:51:04.900Z,24.97
2022-08-16T12:53:42.805Z,25.06
2022-08-16T12:56:13.851Z,25.11
2022-08-16T12:58:48.614Z,25.08
2022-08-16T13:01:18.489Z,25.13
2022-08-16T13:03:46.715Z,25.04
2022-08-16T13:06:20.198Z,24.99
2022-08-16T13:09:02.477Z,25.06
2022-08-16T13:11:37.817Z,25.05
2022-08-16T13:14:30.907Z,25.00
2022-08-16T13:16:58.770Z,25.06
2022-08-16T13:19:35.126Z,25.06
2022-08-16T13:22:18.721Z,25.09
2022-08-16T13:24:47.779Z,25.11
2022-08-16T13:27:16.295Z,25.14
2022-08-16T13:29:46.767Z,25.18
2022-08-16T13:32:40.135Z,25.27
2022-08-16T13:35:11.667Z,25.22
2022-08-16T13:37:41.796Z,25.23
2022-08-16T13:40:19.600Z,25.43
2022-08-16T13:42:49.547Z,25.33
2022-08-16T13:45:20.228Z,25.32
2022-08-16T13:47:52.868Z,25.37
2022-08-16T13:50:31.159Z,25.38
2022-08-16T13:53:09.572Z,25.42
2022-08-16T13:55:37.571Z,25.36
2022-08-16T13:58:37.433Z,25.42
2022-08-16T14:00:59.015Z,25.30
2022-08-16T14:03:27.336Z,25.35
2022-08-16T14:05:58.599Z,25.53
2022-08-16T14:08:27.466Z,25.43
2022-08-16T14:10:55.534Z,25.49
2022-08-16T14:13:23.926Z,25.57
2022-08-16T14:15:53.340Z,25.73
2022-08-16T14:18:22.841Z,25.68
2022-08-16T14:20:58.906Z,25.66
2022-08-16T14:23:27.058Z,25.64
2022-08-16T14:25:57.186Z,25.68
2022-08-16T14:28:25.883Z,25.69
2022-08-16T14:30:55.142Z,25.61
2022-08-16T14:33:24.471Z,25.68
2022-08-16T14:35:54.826Z,25.78
2022-08-16T14:38:23.789Z,25.69
2022-08-16T14:40:55.054Z,25.79
2022-08-16T14:43:24.852Z,25.71
2022-08-16T14:45:54.897Z,25.73
2022-08-16T14:48:26.205Z,25.84
2022-08-16T14:50:55.369Z,25.85
2022-08-16T14:53:24.768Z,25.80
2022-08-16T14:55:55.127Z,25.84
2022-08-16T14:58:34.688Z,25.91
2022-08-16T15:01:05.441Z,25.97
2022-08-16T15:03:37.504Z,25.84
2022-08-16T15:06:06.094Z,25.82
2022-08-16T15:08:37.441Z,25.92
2022-08-16T15:11:08.498Z,25.93
2022-08-16T15:13:36.979Z,25.94
2022-08-16T15:16:05.349Z,26.03
2022-08-16T15:18:35.136Z,26.08
2022-08-16T15:21:04.744Z,26.06
2022-08-16T15:23:34.013Z,26.03
2022-08-16T15:26:04.218Z,26.05
2022-08-16T15:28:38.005Z,25.98
2022-08-16T15:31:09.262Z,25.95
2022-08-16T15:33:43.258Z,25.99
2022-08-16T15:36:18.242Z,25.99
2022-08-16T15:39:03.089Z,26.07
2022-08-16T15:41:58.498Z,26.04
2022-08-16T15:44:45.116Z,26.03
2022-08-16T15:47:25.938Z,26.10
2022-08-16T15:49:56.465Z,26.21
2022-08-16T15:52:29.347Z,26.27
2022-08-16T15:54:58.959Z,26.22
2022-08-16T15:57:30.313Z,26.18
2022-08-16T16:00:15.004Z,26.22
2022-08-16T16:02:43.729Z,26.15
2022-08-16T16:05:13.998Z,26.13
2022-08-16T16:07:56.631Z,26.13
2022-08-16T16:10:32.279Z,26.06
2022-08-16T16:13:01.756Z,26.04
2022-08-16T16:15:34.171Z,26.00
2022-08-16T16:18:05.223Z,25.96
2022-08-16T16:20:43.768Z,25.97
2022-08-16T16:23:12.340Z,25.97
2022-08-16T16:25:44.141Z,25.93
2022-08-16T16:28:46.375Z,25.92
2022-08-16T16:31:04.670Z,25.91
2022-08-16T16:33:34.101Z,25.86
2022-08-16T16:36:06.993Z,25.81
2022-08-16T16:38:35.567Z,25.77
2022-08-16T16:41:09.298Z,25.72
2022-08-16T16:43:40.601Z,25.69
2022-08-16T16:46:32.814Z,25.71
2022-08-16T16:48:58.560Z,25.73
2022-08-16T16:51:29.100Z,25.65
2022-08-16T16:53:57.561Z,25.69
2022-08-16T16:56:31.058Z,25.69
2022-08-16T16:59:04.617Z,25.67
2022-08-16T17:01:57.755Z,25.67
2022-08-16T17:04:31.657Z,25.67
2022-08-16T17:07:02.155Z,25.62
2022-08-16T17:09:30.896Z,25.61
2022-08-16T17:11:59.737Z,25.61
2022-08-16T17:14:32.825Z,25.58
2022-08-16T17:17:06.371Z,25.57
2022-08-16T17:19:40.286Z,25.52
2022-08-16T17:22:14.344Z,25.51
2022-08-16T17:24:50.730Z,25.48
2022-08-16T17:27:32.485Z,25.49
2022-08-16T17:30:15.539Z,25.43
2022-08-16T17:32:48.225Z,25.42
2022-08-16T17:35:19.480Z,25.37
2022-08-16T17:37:51.588Z,25.33
2022-08-16T17:40:40.346Z,25.32
2022-08-16T17:43:12.578Z,25.28
2022-08-16T17:45:42.760Z,25.27
2022-08-16T17:48:11.125Z,25.24
2022-08-16T17:50:40.171Z,25.22
2022-08-16T17:53:10.426Z,25.16
2022-08-16T17:55:40.856Z,25.11
2022-08-16T17:58:22.990Z,25.09
2022-08-16T18:00:54.515Z,25.07
2022-08-16T18:04:02.945Z,25.02
2022-08-16T18:06:18.548Z,24.95
2022-08-16T18:08:49.024Z,24.91
2022-08-16T18:11:25.589Z,24.88
2022-08-16T18:13:55.349Z,24.82
2022-08-16T18:16:24.025Z,24.80
2022-08-16T18:18:51.970Z,24.75
2022-08-16T18:21:37.422Z,24.71
2022-08-16T18:24:07.237Z,24.64
2022-08-16T18:26:35.238Z,24.59
2022-08-16T18:29:03.154Z,24.55
2022-08-16T18:31:32.073Z,24.49
2022-08-16T18:34:01.388Z,24.44
2022-08-16T18:36:29.543Z,24.38
2022-08-16T18:38:57.653Z,24.33
2022-08-16T18:41:27.956Z,24.28
2022-08-16T18:44:26.604Z,24.25
2022-08-16T18:46:50.865Z,24.17
2022-08-16T18:49:19.745Z,24.13
2022-08-16T18:51:47.710Z,24.08
2022-08-16T18:54:18.445Z,23.98
2022-08-16T18:56:56.828Z,23.93
2022-08-16T18:59:28.606Z,23.88
2022-08-16T19:01:59.795Z,23.81
2022-08-16T19:04:56.681Z,23.74
2022-08-16T19:07:20.040Z,23.66
2022-08-16T19:09:48.030Z,23.57
2022-08-16T19:12:17.309Z,23.51
2022-08-16T19:15:08.070Z,23.47
2022-08-16T19:17:39.852Z,23.39
2022-08-16T19:20:10.922Z,23.33
2022-08-16T19:25:48.103Z,23.24
2022-08-16T19:28:21.903Z,23.18
2022-08-16T19:31:12.500Z,23.09
2022-08-16T19:33:41.434Z,23.05
2022-08-16T19:36:32.041Z,23.00
2022-08-16T19:39:08.958Z,22.90
2022-08-16T19:41:38.807Z,22.89
2022-08-16T19:44:08.996Z,22.82
2022-08-16T19:46:37.876Z,22.80
2022-08-16T19:49:06.638Z,22.77
2022-08-16T19:51:34.512Z,22.72
2022-08-16T19:54:02.658Z,22.65
2022-08-16T19:56:30.703Z,22.63
2022-08-16T20:01:49.323Z,22.50
2022-08-16T20:04:17.284Z,22.50
2022-08-16T20:06:45.286Z,22.50
2022-08-16T20:09:15.086Z,22.40
2022-08-16T20:11:44.471Z,22.37
2022-08-16T20:14:19.241Z,22.34
2022-08-16T20:16:55.659Z,22.30
2022-08-16T20:19:23.696Z,22.26
2022-08-16T20:21:51.736Z,22.23
2022-08-16T20:24:36.351Z,22.20
2022-08-16T20:27:06.231Z,22.18
2022-08-16T20:29:34.413Z,22.14
2022-08-16T20:32:03.929Z,22.08
2022-08-16T20:34:32.168Z,22.04
2022-08-16T20:37:00.046Z,21.99
2022-08-16T20:39:28.123Z,21.88
2022-08-16T20:41:56.096Z,21.84
2022-08-16T20:44:25.147Z,21.76
2022-08-16T20:46:53.737Z,21.69
2022-08-16T20:49:23.063Z,21.63
2022-08-16T20:51:55.867Z,21.56
2022-08-16T20:54:25.359Z,21.47
2022-08-16T20:56:53.296Z,21.44
2022-08-16T20:59:21.464Z,21.37
2022-08-16T21:01:50.329Z,21.33
2022-08-16T21:04:19.304Z,21.29
2022-08-16T21:06:54.402Z,21.20
2022-08-16T21:09:24.461Z,21.17
2022-08-16T21:11:55.072Z,21.13
2022-08-16T21:14:23.202Z,21.07
2022-08-16T21:16:51.397Z,21.00
2022-08-16T21:19:19.516Z,20.99
2022-08-16T21:21:49.175Z,20.90
2022-08-16T21:24:17.222Z,20.85
2022-08-16T21:26:53.019Z,20.82
2022-08-16T21:29:25.131Z,20.74
2022-08-16T21:32:06.133Z,20.73
2022-08-16T21:34:34.193Z,20.67
2022-08-16T21:37:03.696Z,20.65
2022-08-16T21:39:32.140Z,20.59
2022-08-16T21:42:00.168Z,20.59
2022-08-16T21:44:32.546Z,20.54
2022-08-16T21:47:06.914Z,20.49
2022-08-16T21:49:36.702Z,20.48
2022-08-16T21:52:08.425Z,20.44
2022-08-16T21:54:37.370Z,20.43
2022-08-16T21:57:10.559Z,20.45
2022-08-16T21:59:38.905Z,20.36
2022-08-16T22:02:07.607Z,20.32
2022-08-16T22:04:38.795Z,20.27
2022-08-16T22:07:08.931Z,20.24
2022-08-16T22:09:36.892Z,20.18
2022-08-16T22:12:05.596Z,20.16
2022-08-16T22:14:33.517Z,20.11
2022-08-16T22:17:01.418Z,20.10
2022-08-16T22:19:29.970Z,20.07
2022-08-16T22:21:57.878Z,20.04
2022-08-16T22:24:27.165Z,19.97
2022-08-16T22:26:55.122Z,19.92
2022-08-16T22:29:23.034Z,19.88
2022-08-16T22:31:51.093Z,19.87
2022-08-16T22:34:19.452Z,19.85
2022-08-16T22:36:47.379Z,19.84
2022-08-16T22:39:15.967Z,19.79
2022-08-16T22:41:45.914Z,19.73
2022-08-16T22:44:14.224Z,19.70
2022-08-16T22:46:42.370Z,19.70
2022-08-16T22:49:10.657Z,19.70
2022-08-16T22:51:40.259Z,19.65
2022-08-16T22:54:45.776Z,19.62
2022-08-16T22:56:58.003Z,19.56
2022-08-16T22:59:26.230Z,19.53
2022-08-16T23:01:54.601Z,19.51
2022-08-16T23:04:23.831Z,19.52
2022-08-16T23:06:51.831Z,19.43
2022-08-16T23:09:19.887Z,19.42
2022-08-16T23:11:47.988Z,19.40
2022-08-16T23:14:17.456Z,19.32
2022-08-16T23:16:47.222Z,19.29
2022-08-16T23:19:17.200Z,19.30
2022-08-16T23:21:48.868Z,19.27
2022-08-16T23:24:19.401Z,19.24
2022-08-16T23:26:49.215Z,19.19
2022-08-16T23:29:23.843Z,19.17
2022-08-16T23:31:56.715Z,19.11
2022-08-16T23:34:25.287Z,19.11
2022-08-16T23:36:53.140Z,19.07
2022-08-16T23:39:21.055Z,19.08
2022-08-16T23:41:49.018Z,19.06
2022-08-16T23:44:56.700Z,19.00
2022-08-16T23:47:07.023Z,19.00
2022-08-16T23:49:56.845Z,19.03
2022-08-16T23:52:42.235Z,19.00
2022-08-16T23:55:11.326Z,19.02
2022-08-16T23:57:39.225Z,18.96
